sensor_id;sensor_type;location;lat;lon;timestamp;noise_LAeq;noise_LA_min;noise_LA_max;noise_LA01;noise_LA95
59691;Laerm;45592;52.094;4.330;2022-07-15T00:01:53;47.88;46.40;49.14;;
59691;Laerm;45592;52.094;4.330;2022-07-15T00:04:19;47.85;46.57;49.18;;
59691;Laerm;45592;52.094;4.330;2022-07-15T00:06:44;47.82;46.66;49.18;;
59691;Laerm;45592;52.094;4.330;2022-07-15T00:09:10;47.87;46.78;49.24;;
59691;Laerm;45592;52.094;4.330;2022-07-15T00:11:35;47.95;46.62;49.10;;
59691;Laerm;45592;52.094;4.330;2022-07-15T00:14:00;47.92;46.84;49.23;;
59691;Laerm;45592;52.094;4.330;2022-07-15T00:16:26;47.89;46.64;49.25;;
59691;Laerm;45592;52.094;4.330;2022-07-15T00:18:51;47.91;46.69;49.32;;
59691;Laerm;45592;52.094;4.330;2022-07-15T00:21:16;47.92;46.78;49.32;;
59691;Laerm;45592;52.094;4.330;2022-07-15T00:23:42;47.91;46.76;49.25;;
59691;Laerm;45592;52.094;4.330;2022-07-15T00:26:07;47.91;46.57;49.50;;
59691;Laerm;45592;52.094;4.330;2022-07-15T00:28:32;47.90;46.82;49.36;;
59691;Laerm;45592;52.094;4.330;2022-07-15T00:30:58;47.96;46.55;49.32;;
59691;Laerm;45592;52.094;4.330;2022-07-15T00:33:23;47.93;46.82;49.11;;
59691;Laerm;45592;52.094;4.330;2022-07-15T00:35:48;47.94;46.62;49.23;;
59691;Laerm;45592;52.094;4.330;2022-07-15T00:38:15;48.01;46.57;49.23;;
59691;Laerm;45592;52.094;4.330;2022-07-15T00:40:46;48.02;46.69;49.33;;
59691;Laerm;45592;52.094;4.330;2022-07-15T00:43:12;47.99;46.62;49.44;;
59691;Laerm;45592;52.094;4.330;2022-07-15T00:45:37;47.96;46.73;49.38;;
59691;Laerm;45592;52.094;4.330;2022-07-15T00:48:03;47.93;46.76;49.27;;
59691;Laerm;45592;52.094;4.330;2022-07-15T00:50:30;47.99;46.73;49.55;;
59691;Laerm;45592;52.094;4.330;2022-07-15T00:53:08;48.05;46.64;49.35;;
59691;Laerm;45592;52.094;4.330;2022-07-15T00:55:43;48.03;46.87;49.24;;
59691;Laerm;45592;52.094;4.330;2022-07-15T00:58:11;48.05;46.75;49.28;;
59691;Laerm;45592;52.094;4.330;2022-07-15T01:00:39;48.03;46.82;49.12;;
59691;Laerm;45592;52.094;4.330;2022-07-15T01:03:06;48.01;46.73;49.18;;
59691;Laerm;45592;52.094;4.330;2022-07-15T01:05:33;48.07;46.78;49.28;;
59691;Laerm;45592;52.094;4.330;2022-07-15T01:07:58;48.14;46.93;49.45;;
59691;Laerm;45592;52.094;4.330;2022-07-15T01:10:24;48.12;46.84;49.30;;
59691;Laerm;45592;52.094;4.330;2022-07-15T01:12:50;48.09;46.71;49.30;;
59691;Laerm;45592;52.094;4.330;2022-07-15T01:15:16;48.12;46.66;49.33;;
59691;Laerm;45592;52.094;4.330;2022-07-15T01:17:43;48.14;46.93;49.38;;
59691;Laerm;45592;52.094;4.330;2022-07-15T01:20:10;48.13;46.97;49.30;;
59691;Laerm;45592;52.094;4.330;2022-07-15T01:22:36;48.04;46.69;49.19;;
59691;Laerm;45592;52.094;4.330;2022-07-15T01:25:01;48.05;46.80;49.19;;
59691;Laerm;45592;52.094;4.330;2022-07-15T01:27:27;48.13;46.91;49.38;;
59691;Laerm;45592;52.094;4.330;2022-07-15T01:29:53;48.09;46.95;49.73;;
59691;Laerm;45592;52.094;4.330;2022-07-15T01:32:18;48.09;46.84;49.29;;
59691;Laerm;45592;52.094;4.330;2022-07-15T01:34:43;48.12;46.80;49.15;;
59691;Laerm;45592;52.094;4.330;2022-07-15T01:37:09;48.08;46.91;49.27;;
59691;Laerm;45592;52.094;4.330;2022-07-15T01:39:34;48.12;46.91;49.27;;
59691;Laerm;45592;52.094;4.330;2022-07-15T01:42:04;48.11;46.80;49.28;;
59691;Laerm;45592;52.094;4.330;2022-07-15T01:44:29;48.03;46.82;49.32;;
59691;Laerm;45592;52.094;4.330;2022-07-15T01:46:54;48.10;46.78;49.27;;
59691;Laerm;45592;52.094;4.330;2022-07-15T01:49:20;47.99;46.76;49.10;;
59691;Laerm;45592;52.094;4.330;2022-07-15T01:51:51;47.98;46.76;49.11;;
59691;Laerm;45592;52.094;4.330;2022-07-15T01:54:17;48.05;46.97;49.34;;
59691;Laerm;45592;52.094;4.330;2022-07-15T01:56:43;48.10;46.71;49.29;;
59691;Laerm;45592;52.094;4.330;2022-07-15T01:59:08;48.06;46.69;49.18;;
59691;Laerm;45592;52.094;4.330;2022-07-15T02:01:33;48.03;46.82;49.46;;
59691;Laerm;45592;52.094;4.330;2022-07-15T02:03:59;48.01;46.90;49.34;;
59691;Laerm;45592;52.094;4.330;2022-07-15T02:06:25;48.02;46.73;49.34;;
59691;Laerm;45592;52.094;4.330;2022-07-15T02:08:50;47.90;46.73;49.23;;
59691;Laerm;45592;52.094;4.330;2022-07-15T02:11:16;47.94;46.69;49.04;;
59691;Laerm;45592;52.094;4.330;2022-07-15T02:13:41;47.99;46.84;49.21;;
59691;Laerm;45592;52.094;4.330;2022-07-15T02:16:06;48.01;46.89;49.27;;
59691;Laerm;45592;52.094;4.330;2022-07-15T02:18:32;48.00;46.76;49.24;;
59691;Laerm;45592;52.094;4.330;2022-07-15T02:20:57;48.05;46.82;49.25;;
59691;Laerm;45592;52.094;4.330;2022-07-15T02:23:23;48.03;46.87;49.34;;
59691;Laerm;45592;52.094;4.330;2022-07-15T02:25:48;48.04;46.91;49.26;;
59691;Laerm;45592;52.094;4.330;2022-07-15T02:28:15;48.02;46.64;49.35;;
59691;Laerm;45592;52.094;4.330;2022-07-15T02:30:41;48.03;46.84;49.18;;
59691;Laerm;45592;52.094;4.330;2022-07-15T02:33:07;47.93;46.25;49.04;;
59691;Laerm;45592;52.094;4.330;2022-07-15T02:35:34;47.86;46.38;48.94;;
59691;Laerm;45592;52.094;4.330;2022-07-15T02:37:59;47.90;46.78;49.16;;
59691;Laerm;45592;52.094;4.330;2022-07-15T02:40:25;47.98;46.57;49.39;;
59691;Laerm;45592;52.094;4.330;2022-07-15T02:42:53;47.96;46.80;49.16;;
59691;Laerm;45592;52.094;4.330;2022-07-15T02:45:20;47.92;46.82;49.06;;
59691;Laerm;45592;52.094;4.330;2022-07-15T02:47:46;47.94;46.80;49.18;;
59691;Laerm;45592;52.094;4.330;2022-07-15T02:50:12;47.98;46.87;49.06;;
59691;Laerm;45592;52.094;4.330;2022-07-15T02:52:37;47.96;46.69;49.07;;
59691;Laerm;45592;52.094;4.330;2022-07-15T02:55:03;48.02;46.91;49.35;;
59691;Laerm;45592;52.094;4.330;2022-07-15T02:57:29;48.01;46.84;49.14;;
59691;Laerm;45592;52.094;4.330;2022-07-15T02:59:54;47.91;46.59;49.06;;
59691;Laerm;45592;52.094;4.330;2022-07-15T03:02:20;47.97;46.84;49.11;;
59691;Laerm;45592;52.094;4.330;2022-07-15T03:04:45;47.97;46.59;49.06;;
59691;Laerm;45592;52.094;4.330;2022-07-15T03:07:11;48.03;46.82;49.18;;
59691;Laerm;45592;52.094;4.330;2022-07-15T03:09:37;48.00;46.66;49.29;;
59691;Laerm;45592;52.094;4.330;2022-07-15T03:12:02;47.90;46.57;49.29;;
59691;Laerm;45592;52.094;4.330;2022-07-15T03:14:27;47.93;46.52;49.21;;
59691;Laerm;45592;52.094;4.330;2022-07-15T03:16:53;47.92;46.80;49.32;;
59691;Laerm;45592;52.094;4.330;2022-07-15T03:19:18;47.92;46.62;49.02;;
59691;Laerm;45592;52.094;4.330;2022-07-15T03:21:46;47.91;46.30;49.28;;
59691;Laerm;45592;52.094;4.330;2022-07-15T03:24:11;47.92;46.80;49.04;;
59691;Laerm;45592;52.094;4.330;2022-07-15T03:26:38;47.82;46.50;48.81;;
59691;Laerm;45592;52.094;4.330;2022-07-15T03:29:03;47.90;46.59;49.03;;
59691;Laerm;45592;52.094;4.330;2022-07-15T03:31:29;47.91;46.52;49.07;;
59691;Laerm;45592;52.094;4.330;2022-07-15T03:33:55;47.95;46.84;49.11;;
59691;Laerm;45592;52.094;4.330;2022-07-15T03:36:21;47.96;46.76;49.16;;
59691;Laerm;45592;52.094;4.330;2022-07-15T03:38:46;48.00;46.67;49.16;;
59691;Laerm;45592;52.094;4.330;2022-07-15T03:41:14;48.01;46.73;49.12;;
59691;Laerm;45592;52.094;4.330;2022-07-15T03:43:39;48.01;46.69;49.18;;
59691;Laerm;45592;52.094;4.330;2022-07-15T03:46:04;47.99;46.64;49.32;;
59691;Laerm;45592;52.094;4.330;2022-07-15T03:48:30;48.01;46.84;49.50;;
59691;Laerm;45592;52.094;4.330;2022-07-15T03:50:56;48.03;46.82;49.18;;
59691;Laerm;45592;52.094;4.330;2022-07-15T03:53:21;47.97;46.73;49.41;;
59691;Laerm;45592;52.094;4.330;2022-07-15T03:55:46;48.01;46.64;49.12;;
59691;Laerm;45592;52.094;4.330;2022-07-15T03:58:12;48.07;46.95;49.33;;
59691;Laerm;45592;52.094;4.330;2022-07-15T04:00:37;48.08;46.80;49.16;;
59691;Laerm;45592;52.094;4.330;2022-07-15T04:03:02;48.08;46.73;49.39;;
59691;Laerm;45592;52.094;4.330;2022-07-15T04:05:28;48.09;46.76;49.43;;
59691;Laerm;45592;52.094;4.330;2022-07-15T04:07:53;48.09;46.97;49.36;;
59691;Laerm;45592;52.094;4.330;2022-07-15T04:10:19;48.06;46.78;49.38;;
59691;Laerm;45592;52.094;4.330;2022-07-15T04:12:44;48.08;46.78;49.34;;
59691;Laerm;45592;52.094;4.330;2022-07-15T04:15:10;48.07;46.87;49.20;;
59691;Laerm;45592;52.094;4.330;2022-07-15T04:17:35;48.06;46.84;49.43;;
59691;Laerm;45592;52.094;4.330;2022-07-15T04:20:01;48.08;47.00;49.30;;
59691;Laerm;45592;52.094;4.330;2022-07-15T04:22:26;48.04;46.69;49.21;;
59691;Laerm;45592;52.094;4.330;2022-07-15T04:24:51;48.06;46.91;49.41;;
59691;Laerm;45592;52.094;4.330;2022-07-15T04:27:17;48.08;46.82;49.34;;
59691;Laerm;45592;52.094;4.330;2022-07-15T04:29:42;48.10;46.93;49.47;;
59691;Laerm;45592;52.094;4.330;2022-07-15T04:32:08;48.09;46.93;49.24;;
59691;Laerm;45592;52.094;4.330;2022-07-15T04:34:33;48.11;46.62;49.44;;
59691;Laerm;45592;52.094;4.330;2022-07-15T04:36:58;48.07;46.73;49.27;;
59691;Laerm;45592;52.094;4.330;2022-07-15T04:39:24;48.00;46.62;49.15;;
59691;Laerm;45592;52.094;4.330;2022-07-15T04:41:49;48.08;46.89;49.49;;
59691;Laerm;45592;52.094;4.330;2022-07-15T04:44:17;48.18;47.00;49.34;;
59691;Laerm;45592;52.094;4.330;2022-07-15T04:46:42;48.16;46.80;49.47;;
59691;Laerm;45592;52.094;4.330;2022-07-15T04:49:08;48.12;46.93;49.20;;
59691;Laerm;45592;52.094;4.330;2022-07-15T04:51:51;48.09;46.80;49.27;;
59691;Laerm;45592;52.094;4.330;2022-07-15T04:54:17;48.06;46.80;49.30;;
59691;Laerm;45592;52.094;4.330;2022-07-15T04:56:42;48.03;46.87;49.15;;
59691;Laerm;45592;52.094;4.330;2022-07-15T04:59:07;48.04;46.73;49.21;;
59691;Laerm;45592;52.094;4.330;2022-07-15T05:01:32;48.07;46.88;49.16;;
59691;Laerm;45592;52.094;4.330;2022-07-15T05:03:58;48.07;46.93;49.37;;
59691;Laerm;45592;52.094;4.330;2022-07-15T05:06:24;48.10;46.91;49.16;;
59691;Laerm;45592;52.094;4.330;2022-07-15T05:08:49;48.10;47.00;49.28;;
59691;Laerm;45592;52.094;4.330;2022-07-15T05:11:15;48.10;46.89;49.28;;
59691;Laerm;45592;52.094;4.330;2022-07-15T05:13:40;48.09;46.78;49.28;;
59691;Laerm;45592;52.094;4.330;2022-07-15T05:16:05;48.14;47.00;49.25;;
59691;Laerm;45592;52.094;4.330;2022-07-15T05:18:31;48.11;46.84;49.21;;
59691;Laerm;45592;52.094;4.330;2022-07-15T05:20:56;48.08;46.82;49.33;;
59691;Laerm;45592;52.094;4.330;2022-07-15T05:23:21;48.10;46.91;49.29;;
59691;Laerm;45592;52.094;4.330;2022-07-15T05:25:47;48.17;47.02;49.46;;
59691;Laerm;45592;52.094;4.330;2022-07-15T05:28:12;48.17;46.93;49.60;;
59691;Laerm;45592;52.094;4.330;2022-07-15T05:30:38;48.26;47.02;49.38;;
59691;Laerm;45592;52.094;4.330;2022-07-15T05:33:03;48.27;46.82;49.56;;
59691;Laerm;45592;52.094;4.330;2022-07-15T05:35:29;48.34;47.08;49.52;;
59691;Laerm;45592;52.094;4.330;2022-07-15T05:37:55;48.34;47.06;49.63;;
59691;Laerm;45592;52.094;4.330;2022-07-15T05:40:20;48.34;46.95;49.51;;
59691;Laerm;45592;52.094;4.330;2022-07-15T05:42:45;48.22;46.78;49.58;;
59691;Laerm;45592;52.094;4.330;2022-07-15T05:45:12;48.28;46.89;49.71;;
59691;Laerm;45592;52.094;4.330;2022-07-15T05:47:37;48.39;47.06;49.60;;
59691;Laerm;45592;52.094;4.330;2022-07-15T05:50:03;48.37;46.97;49.50;;
59691;Laerm;45592;52.094;4.330;2022-07-15T05:52:29;48.31;47.10;49.57;;
59691;Laerm;45592;52.094;4.330;2022-07-15T05:54:54;48.23;47.00;49.45;;
59691;Laerm;45592;52.094;4.330;2022-07-15T05:57:20;48.33;47.10;49.71;;
59691;Laerm;45592;52.094;4.330;2022-07-15T05:59:45;48.35;47.02;49.57;;
59691;Laerm;45592;52.094;4.330;2022-07-15T06:02:10;48.34;46.84;49.62;;
59691;Laerm;45592;52.094;4.330;2022-07-15T06:04:39;48.45;47.17;49.85;;
59691;Laerm;45592;52.094;4.330;2022-07-15T06:07:04;48.52;47.12;49.79;;
59691;Laerm;45592;52.094;4.330;2022-07-15T06:09:30;48.41;47.21;49.94;;
59691;Laerm;45592;52.094;4.330;2022-07-15T06:11:56;48.59;47.12;49.79;;
59691;Laerm;45592;52.094;4.330;2022-07-15T06:14:21;48.68;47.30;49.94;;
59691;Laerm;45592;52.094;4.330;2022-07-15T06:16:47;48.61;47.32;49.84;;
59691;Laerm;45592;52.094;4.330;2022-07-15T06:19:12;48.79;47.38;49.95;;
59691;Laerm;45592;52.094;4.330;2022-07-15T06:21:37;48.77;47.38;50.07;;
59691;Laerm;45592;52.094;4.330;2022-07-15T06:24:03;48.66;47.35;50.40;;
59691;Laerm;45592;52.094;4.330;2022-07-15T06:26:28;48.64;47.32;50.05;;
59691;Laerm;45592;52.094;4.330;2022-07-15T06:28:54;48.67;47.06;49.85;;
59691;Laerm;45592;52.094;4.330;2022-07-15T06:31:19;48.65;47.38;50.15;;
59691;Laerm;45592;52.094;4.330;2022-07-15T06:33:44;48.57;47.12;50.18;;
59691;Laerm;45592;52.094;4.330;2022-07-15T06:36:09;48.68;47.36;50.08;;
59691;Laerm;45592;52.094;4.330;2022-07-15T06:38:35;48.70;47.18;49.98;;
59691;Laerm;45592;52.094;4.330;2022-07-15T06:41:00;48.58;47.24;50.26;;
59691;Laerm;45592;52.094;4.330;2022-07-15T06:43:25;48.66;47.30;50.04;;
59691;Laerm;45592;52.094;4.330;2022-07-15T06:45:51;48.72;47.55;49.89;;
59691;Laerm;45592;52.094;4.330;2022-07-15T06:48:16;48.70;47.40;49.98;;
59691;Laerm;45592;52.094;4.330;2022-07-15T06:50:41;48.63;46.91;49.91;;
59691;Laerm;45592;52.094;4.330;2022-07-15T06:53:07;48.59;46.89;49.85;;
59691;Laerm;45592;52.094;4.330;2022-07-15T06:55:33;48.50;47.04;49.98;;
59691;Laerm;45592;52.094;4.330;2022-07-15T06:57:58;48.48;47.20;49.97;;
59691;Laerm;45592;52.094;4.330;2022-07-15T07:00:23;48.50;47.16;49.88;;
59691;Laerm;45592;52.094;4.330;2022-07-15T07:02:49;48.55;47.40;49.73;;
59691;Laerm;45592;52.094;4.330;2022-07-15T07:05:16;48.50;47.22;49.92;;
59691;Laerm;45592;52.094;4.330;2022-07-15T07:07:41;48.51;47.32;49.83;;
59691;Laerm;45592;52.094;4.330;2022-07-15T07:10:07;48.42;47.10;49.84;;
59691;Laerm;45592;52.094;4.330;2022-07-15T07:12:32;48.47;47.10;49.59;;
59691;Laerm;45592;52.094;4.330;2022-07-15T07:14:58;48.31;47.04;49.40;;
59691;Laerm;45592;52.094;4.330;2022-07-15T07:17:26;48.45;47.18;49.91;;
59691;Laerm;45592;52.094;4.330;2022-07-15T07:19:51;48.44;47.02;49.64;;
59691;Laerm;45592;52.094;4.330;2022-07-15T07:22:17;48.47;46.95;49.89;;
59691;Laerm;45592;52.094;4.330;2022-07-15T07:24:42;48.41;47.02;49.71;;
59691;Laerm;45592;52.094;4.330;2022-07-15T07:27:08;48.45;47.12;49.88;;
59691;Laerm;45592;52.094;4.330;2022-07-15T07:29:33;48.51;47.26;49.84;;
59691;Laerm;45592;52.094;4.330;2022-07-15T07:31:58;48.58;47.48;49.91;;
59691;Laerm;45592;52.094;4.330;2022-07-15T07:34:25;48.63;47.44;49.85;;
59691;Laerm;45592;52.094;4.330;2022-07-15T07:36:50;48.51;47.28;49.80;;
59691;Laerm;45592;52.094;4.330;2022-07-15T07:39:16;48.58;47.36;49.87;;
59691;Laerm;45592;52.094;4.330;2022-07-15T07:41:41;48.56;47.36;49.80;;
59691;Laerm;45592;52.094;4.330;2022-07-15T07:44:07;48.58;47.18;49.77;;
59691;Laerm;45592;52.094;4.330;2022-07-15T07:46:33;48.60;47.42;49.98;;
59691;Laerm;45592;52.094;4.330;2022-07-15T07:48:58;48.56;47.32;49.79;;
59691;Laerm;45592;52.094;4.330;2022-07-15T07:51:23;48.65;47.18;49.87;;
59691;Laerm;45592;52.094;4.330;2022-07-15T07:53:49;48.65;47.10;49.94;;
59691;Laerm;45592;52.094;4.330;2022-07-15T07:56:15;48.70;47.22;49.94;;
59691;Laerm;45592;52.094;4.330;2022-07-15T07:58:40;48.50;47.34;49.77;;
59691;Laerm;45592;52.094;4.330;2022-07-15T08:01:06;48.49;47.14;49.92;;
59691;Laerm;45592;52.094;4.330;2022-07-15T08:03:31;48.52;47.20;49.70;;
59691;Laerm;45592;52.094;4.330;2022-07-15T08:05:56;48.58;47.28;49.97;;
59691;Laerm;45592;52.094;4.330;2022-07-15T08:08:22;48.64;47.42;50.16;;
59691;Laerm;45592;52.094;4.330;2022-07-15T08:10:53;48.69;47.28;50.04;;
59691;Laerm;45592;52.094;4.330;2022-07-15T08:13:21;48.74;47.48;50.12;;
59691;Laerm;45592;52.094;4.330;2022-07-15T08:15:47;48.75;47.54;50.21;;
59691;Laerm;45592;52.094;4.330;2022-07-15T08:18:13;48.84;47.46;50.02;;
59691;Laerm;45592;52.094;4.330;2022-07-15T08:20:38;48.99;47.40;50.31;;
59691;Laerm;45592;52.094;4.330;2022-07-15T08:23:04;48.98;47.30;50.43;;
59691;Laerm;45592;52.094;4.330;2022-07-15T08:25:32;49.05;47.59;50.20;;
59691;Laerm;45592;52.094;4.330;2022-07-15T08:28:00;49.09;47.68;50.54;;
59691;Laerm;45592;52.094;4.330;2022-07-15T08:30:26;49.02;47.63;50.30;;
59691;Laerm;45592;52.094;4.330;2022-07-15T08:32:52;49.15;47.63;50.63;;
59691;Laerm;45592;52.094;4.330;2022-07-15T08:35:18;49.32;47.86;50.53;;
59691;Laerm;45592;52.094;4.330;2022-07-15T08:37:43;49.12;47.44;50.47;;
59691;Laerm;45592;52.094;4.330;2022-07-15T08:40:09;49.26;47.79;50.52;;
59691;Laerm;45592;52.094;4.330;2022-07-15T08:42:36;49.55;48.05;50.89;;
59691;Laerm;45592;52.094;4.330;2022-07-15T08:45:05;49.89;48.37;51.16;;
59691;Laerm;45592;52.094;4.330;2022-07-15T08:47:31;49.87;48.39;51.17;;
59691;Laerm;45592;52.094;4.330;2022-07-15T08:49:57;50.16;48.67;51.43;;
59691;Laerm;45592;52.094;4.330;2022-07-15T08:52:24;49.93;48.41;51.45;;
59691;Laerm;45592;52.094;4.330;2022-07-15T08:54:49;49.95;48.52;51.37;;
59691;Laerm;45592;52.094;4.330;2022-07-15T08:57:15;50.00;48.34;51.42;;
59691;Laerm;45592;52.094;4.330;2022-07-15T08:59:40;49.90;48.29;51.32;;
59691;Laerm;45592;52.094;4.330;2022-07-15T09:02:07;49.67;48.12;51.11;;
59691;Laerm;45592;52.094;4.330;2022-07-15T09:04:33;49.51;47.85;51.02;;
59691;Laerm;45592;52.094;4.330;2022-07-15T09:07:01;49.53;47.95;50.93;;
59691;Laerm;45592;52.094;4.330;2022-07-15T09:09:32;49.46;48.02;50.98;;
59691;Laerm;45592;52.094;4.330;2022-07-15T09:14:29;50.17;48.61;51.85;;
59691;Laerm;45592;52.094;4.330;2022-07-15T09:17:18;50.44;48.42;51.82;;
59691;Laerm;45592;52.094;4.330;2022-07-15T09:20:04;50.75;49.15;52.08;;
59691;Laerm;45592;52.094;4.330;2022-07-15T09:22:33;50.74;48.94;52.13;;
59691;Laerm;45592;52.094;4.330;2022-07-15T09:27:32;50.70;48.85;52.15;;
59691;Laerm;45592;52.094;4.330;2022-07-15T09:32:59;50.64;48.57;52.13;;
59691;Laerm;45592;52.094;4.330;2022-07-15T09:35:44;50.77;48.52;52.44;;
59691;Laerm;45592;52.094;4.330;2022-07-15T09:38:31;51.16;48.77;52.89;;
59691;Laerm;45592;52.094;4.330;2022-07-15T09:40:57;50.96;48.40;53.00;;
59691;Laerm;45592;52.094;4.330;2022-07-15T09:43:23;51.40;49.07;52.97;;
59691;Laerm;45592;52.094;4.330;2022-07-15T09:45:56;51.43;49.16;52.83;;
59691;Laerm;45592;52.094;4.330;2022-07-15T09:48:24;51.41;49.14;52.96;;
59691;Laerm;45592;52.094;4.330;2022-07-15T09:50:50;51.54;48.84;53.60;;
59691;Laerm;45592;52.094;4.330;2022-07-15T09:53:15;51.32;48.42;53.51;;
59691;Laerm;45592;52.094;4.330;2022-07-15T09:55:42;50.91;48.92;54.19;;
59691;Laerm;45592;52.094;4.330;2022-07-15T09:58:07;50.94;48.92;53.84;;
59691;Laerm;45592;52.094;4.330;2022-07-15T10:00:37;51.33;49.53;54.61;;
59691;Laerm;45592;52.094;4.330;2022-07-15T10:03:03;51.44;49.94;54.64;;
59691;Laerm;45592;52.094;4.330;2022-07-15T10:05:28;51.37;49.48;54.36;;
59691;Laerm;45592;52.094;4.330;2022-07-15T10:07:57;51.31;49.27;54.05;;
59691;Laerm;45592;52.094;4.330;2022-07-15T10:10:24;50.75;48.96;53.87;;
59691;Laerm;45592;52.094;4.330;2022-07-15T10:13:22;50.75;48.80;53.54;;
59691;Laerm;45592;52.094;4.330;2022-07-15T10:19:30;50.90;48.34;53.95;;
59691;Laerm;45592;52.094;4.330;2022-07-15T10:21:53;50.05;47.86;58.41;;
59691;Laerm;45592;52.094;4.330;2022-07-15T10:27:30;49.96;47.63;58.15;;
59691;Laerm;45592;52.094;4.330;2022-07-15T10:30:04;50.52;47.38;56.88;;
59691;Laerm;45592;52.094;4.330;2022-07-15T10:35:50;51.34;48.13;59.24;;
59691;Laerm;45592;52.094;4.330;2022-07-15T10:43:49;49.76;47.00;56.89;;
59691;Laerm;45592;52.094;4.330;2022-07-15T10:48:46;49.61;47.28;56.05;;
59691;Laerm;45592;52.094;4.330;2022-07-15T10:51:13;51.22;48.57;54.75;;
59691;Laerm;45592;52.094;4.330;2022-07-15T10:53:58;51.09;48.07;53.51;;
59691;Laerm;45592;52.094;4.330;2022-07-15T10:56:29;49.31;47.34;51.96;;
59691;Laerm;45592;52.094;4.330;2022-07-15T10:59:15;49.26;47.20;56.02;;
59691;Laerm;45592;52.094;4.330;2022-07-15T11:01:46;49.00;47.28;53.72;;
59691;Laerm;45592;52.094;4.330;2022-07-15T11:04:20;49.09;47.10;54.01;;
59691;Laerm;45592;52.094;4.330;2022-07-15T11:12:18;49.66;47.18;55.36;;
59691;Laerm;45592;52.094;4.330;2022-07-15T11:14:49;49.92;47.42;55.91;;
59691;Laerm;45592;52.094;4.330;2022-07-15T11:17:20;49.04;47.00;55.58;;
59691;Laerm;45592;52.094;4.330;2022-07-15T11:19:50;49.07;47.24;54.53;;
59691;Laerm;45592;52.094;4.330;2022-07-15T11:22:18;51.22;47.14;65.05;;
59691;Laerm;45592;52.094;4.330;2022-07-15T11:24:44;48.87;47.08;54.75;;
59691;Laerm;45592;52.094;4.330;2022-07-15T11:27:09;50.45;47.18;62.32;;
59691;Laerm;45592;52.094;4.330;2022-07-15T11:29:43;49.06;47.30;59.97;;
59691;Laerm;45592;52.094;4.330;2022-07-15T11:32:09;49.02;47.34;55.48;;
59691;Laerm;45592;52.094;4.330;2022-07-15T11:34:38;49.67;47.35;59.93;;
59691;Laerm;45592;52.094;4.330;2022-07-15T11:37:04;49.36;47.30;56.67;;
59691;Laerm;45592;52.094;4.330;2022-07-15T11:39:30;49.43;47.42;59.05;;
59691;Laerm;45592;52.094;4.330;2022-07-15T11:41:55;50.06;47.93;52.79;;
59691;Laerm;45592;52.094;4.330;2022-07-15T11:44:46;50.13;47.86;56.71;;
59691;Laerm;45592;52.094;4.330;2022-07-15T11:47:11;51.17;48.71;55.63;;
59691;Laerm;45592;52.094;4.330;2022-07-15T11:49:38;51.78;49.69;55.26;;
59691;Laerm;45592;52.094;4.330;2022-07-15T11:52:06;51.29;49.33;53.58;;
59691;Laerm;45592;52.094;4.330;2022-07-15T11:54:35;51.96;49.72;54.91;;
59691;Laerm;45592;52.094;4.330;2022-07-15T11:57:04;51.81;49.43;53.96;;
59691;Laerm;45592;52.094;4.330;2022-07-15T11:59:31;51.69;49.46;58.08;;
59691;Laerm;45592;52.094;4.330;2022-07-15T12:02:05;50.89;48.13;55.15;;
59691;Laerm;45592;52.094;4.330;2022-07-15T12:04:31;50.41;47.90;52.63;;
59691;Laerm;45592;52.094;4.330;2022-07-15T12:06:57;50.87;48.54;53.71;;
59691;Laerm;45592;52.094;4.330;2022-07-15T12:09:23;51.17;48.26;53.54;;
59691;Laerm;45592;52.094;4.330;2022-07-15T12:11:49;51.23;48.40;53.63;;
59691;Laerm;45592;52.094;4.330;2022-07-15T12:14:20;50.98;48.54;53.47;;
59691;Laerm;45592;52.094;4.330;2022-07-15T12:16:51;51.75;49.11;57.31;;
59691;Laerm;45592;52.094;4.330;2022-07-15T12:19:18;52.48;49.21;54.82;;
59691;Laerm;45592;52.094;4.330;2022-07-15T12:21:47;53.82;50.63;56.99;;
59691;Laerm;45592;52.094;4.330;2022-07-15T12:24:17;52.03;49.88;56.59;;
59691;Laerm;45592;52.094;4.330;2022-07-15T12:29:20;52.66;50.45;55.29;;
59691;Laerm;45592;52.094;4.330;2022-07-15T12:34:46;52.48;49.74;54.11;;
59691;Laerm;45592;52.094;4.330;2022-07-15T12:37:08;53.23;50.28;54.79;;
59691;Laerm;45592;52.094;4.330;2022-07-15T12:39:33;53.82;50.16;55.14;;
59691;Laerm;45592;52.094;4.330;2022-07-15T12:42:00;53.26;50.09;55.16;;
59691;Laerm;45592;52.094;4.330;2022-07-15T12:44:27;53.02;50.17;54.93;;
59691;Laerm;45592;52.094;4.330;2022-07-15T12:47:00;52.70;49.16;54.13;;
59691;Laerm;45592;52.094;4.330;2022-07-15T12:49:41;51.03;48.80;52.97;;
59691;Laerm;45592;52.094;4.330;2022-07-15T12:52:32;51.35;48.85;52.86;;
59691;Laerm;45592;52.094;4.330;2022-07-15T12:54:59;50.93;48.40;52.63;;
59691;Laerm;45592;52.094;4.330;2022-07-15T12:57:34;50.32;47.98;52.16;;
59691;Laerm;45592;52.094;4.330;2022-07-15T13:05:20;50.37;47.74;52.34;;
59691;Laerm;45592;52.094;4.330;2022-07-15T13:07:46;50.63;48.34;53.36;;
59691;Laerm;45592;52.094;4.330;2022-07-15T13:10:11;49.94;48.00;51.67;;
59691;Laerm;45592;52.094;4.330;2022-07-15T13:12:38;49.49;47.36;51.64;;
59691;Laerm;45592;52.094;4.330;2022-07-15T13:15:03;49.58;47.96;51.64;;
59691;Laerm;45592;52.094;4.330;2022-07-15T13:17:29;49.66;47.80;51.49;;
59691;Laerm;45592;52.094;4.330;2022-07-15T13:19:55;49.74;48.03;51.46;;
59691;Laerm;45592;52.094;4.330;2022-07-15T13:22:20;49.62;48.04;51.19;;
59691;Laerm;45592;52.094;4.330;2022-07-15T13:24:45;49.56;47.76;51.34;;
59691;Laerm;45592;52.094;4.330;2022-07-15T13:27:11;49.54;47.84;50.95;;
59691;Laerm;45592;52.094;4.330;2022-07-15T13:29:37;48.77;47.40;50.25;;
59691;Laerm;45592;52.094;4.330;2022-07-15T13:32:02;49.09;47.68;50.25;;
59691;Laerm;45592;52.094;4.330;2022-07-15T13:34:27;48.94;47.54;50.28;;
59691;Laerm;45592;52.094;4.330;2022-07-15T13:36:53;48.57;47.24;50.36;;
59691;Laerm;45592;52.094;4.330;2022-07-15T13:39:19;48.58;47.10;49.83;;
59691;Laerm;45592;52.094;4.330;2022-07-15T13:41:44;48.53;47.12;49.84;;
59691;Laerm;45592;52.094;4.330;2022-07-15T13:44:09;48.26;47.06;49.85;;
59691;Laerm;45592;52.094;4.330;2022-07-15T13:46:35;48.49;47.00;50.00;;
59691;Laerm;45592;52.094;4.330;2022-07-15T13:49:00;48.63;46.82;50.20;;
59691;Laerm;45592;52.094;4.330;2022-07-15T13:51:26;48.39;46.95;49.77;;
59691;Laerm;45592;52.094;4.330;2022-07-15T13:53:53;48.70;47.28;49.92;;
59691;Laerm;45592;52.094;4.330;2022-07-15T13:56:19;48.45;46.87;49.78;;
59691;Laerm;45592;52.094;4.330;2022-07-15T13:58:45;48.36;46.71;49.67;;
59691;Laerm;45592;52.094;4.330;2022-07-15T14:01:11;48.38;46.97;49.71;;
59691;Laerm;45592;52.094;4.330;2022-07-15T14:03:37;48.46;47.18;50.00;;
59691;Laerm;45592;52.094;4.330;2022-07-15T14:06:03;48.37;47.10;49.71;;
59691;Laerm;45592;52.094;4.330;2022-07-15T14:08:29;48.43;46.97;49.58;;
59691;Laerm;45592;52.094;4.330;2022-07-15T14:10:54;48.61;46.78;49.87;;
59691;Laerm;45592;52.094;4.330;2022-07-15T14:13:19;48.87;47.34;50.16;;
59691;Laerm;45592;52.094;4.330;2022-07-15T14:15:45;49.81;47.91;51.38;;
59691;Laerm;45592;52.094;4.330;2022-07-15T14:18:10;50.32;48.32;51.80;;
59691;Laerm;45592;52.094;4.330;2022-07-15T14:20:36;50.43;48.45;52.38;;
59691;Laerm;45592;52.094;4.330;2022-07-15T14:23:01;51.16;48.81;52.46;;
59691;Laerm;45592;52.094;4.330;2022-07-15T14:25:26;50.66;48.70;52.18;;